createdAt,value
2022-11-23T00:03:01.111Z,36.67
2022-11-23T00:06:04.190Z,36.73
2022-11-23T00:09:08.557Z,33.13
2022-11-23T00:12:12.389Z,37.33
2022-11-23T00:15:16.551Z,35.13
2022-11-23T00:18:20.953Z,36.23
2022-11-23T00:21:26.302Z,35.37
2022-11-23T00:24:29.431Z,35.73
2022-11-23T00:27:32.574Z,35.30
2022-11-23T00:30:35.528Z,37.00
2022-11-23T00:33:40.465Z,36.47
2022-11-23T00:36:43.490Z,35.07
2022-11-23T00:39:47.022Z,32.03
2022-11-23T00:42:50.343Z,35.60
2022-11-23T00:46:04.987Z,37.43
2022-11-23T00:49:09.990Z,36.63
2022-11-23T00:52:14.814Z,34.47
2022-11-23T00:55:18.085Z,36.70
2022-11-23T00:58:21.585Z,36.93
2022-11-23T01:01:27.059Z,32.87
2022-11-23T01:04:31.527Z,35.43
2022-11-23T01:07:36.355Z,34.80
2022-11-23T01:10:44.920Z,37.17
2022-11-23T01:13:48.838Z,36.33
2022-11-23T01:16:51.925Z,36.10
2022-11-23T01:19:56.225Z,35.73
2022-11-23T01:22:59.179Z,36.10
2022-11-23T01:26:06.888Z,31.60
2022-11-23T01:29:09.840Z,34.47
2022-11-23T01:32:14.608Z,35.10
2022-11-23T01:35:19.142Z,37.60
2022-11-23T01:38:22.702Z,34.10
2022-11-23T01:41:30.914Z,34.23
2022-11-23T01:44:36.131Z,36.67
2022-11-23T01:47:39.093Z,34.77
2022-11-23T01:50:45.992Z,35.97
2022-11-23T01:53:52.592Z,34.93
2022-11-23T01:57:02.149Z,36.60
2022-11-23T02:00:07.572Z,35.63
2022-11-23T02:03:17.005Z,34.97
2022-11-23T02:06:22.392Z,35.77
2022-11-23T02:09:25.782Z,35.73
2022-11-23T02:12:28.752Z,35.70
2022-11-23T02:15:35.296Z,37.93
2022-11-23T02:18:42.575Z,38.00
2022-11-23T02:21:48.697Z,36.53
2022-11-23T02:24:56.164Z,36.97
2022-11-23T02:28:04.114Z,37.47
2022-11-23T02:31:07.119Z,37.50
2022-11-23T02:34:10.712Z,36.23
2022-11-23T02:37:14.247Z,38.17
2022-11-23T02:40:27.280Z,36.57
2022-11-23T02:43:31.647Z,36.93
2022-11-23T02:46:34.919Z,37.33
2022-11-23T02:49:38.378Z,36.67
2022-11-23T02:52:41.641Z,34.93
2022-11-23T02:55:44.914Z,36.27
2022-11-23T02:58:49.381Z,36.23
2022-11-23T03:01:53.237Z,36.00
2022-11-23T03:04:56.448Z,35.63
2022-11-23T03:07:59.682Z,36.40
2022-11-23T03:11:05.169Z,38.40
2022-11-23T03:14:10.158Z,36.27
2022-11-23T03:17:22.996Z,38.83
2022-11-23T03:20:26.345Z,35.10
2022-11-23T03:23:30.009Z,36.57
2022-11-23T03:26:33.609Z,37.73
2022-11-23T03:29:45.942Z,35.87
2022-11-23T03:32:54.362Z,35.27
2022-11-23T03:35:57.466Z,36.67
2022-11-23T03:39:05.379Z,36.43
2022-11-23T03:42:28.388Z,33.90
2022-11-23T03:45:34.080Z,36.23
2022-11-23T03:48:37.258Z,36.37
2022-11-23T03:51:40.723Z,33.43
2022-11-23T03:54:44.350Z,35.83
2022-11-23T03:57:49.321Z,32.53
2022-11-23T04:00:53.870Z,33.50
2022-11-23T04:03:57.848Z,34.80
2022-11-23T04:07:21.127Z,34.27
2022-11-23T04:10:27.700Z,33.53
2022-11-23T04:13:39.625Z,35.50
2022-11-23T04:16:45.846Z,33.03
2022-11-23T04:19:48.837Z,35.43
2022-11-23T04:22:52.294Z,34.17
2022-11-23T04:25:55.553Z,33.97
2022-11-23T04:29:00.080Z,33.37
2022-11-23T04:32:05.127Z,33.30
2022-11-23T04:35:09.549Z,32.63
2022-11-23T04:38:13.793Z,33.07
2022-11-23T04:41:18.785Z,34.13
2022-11-23T04:44:22.057Z,34.33
2022-11-23T04:47:30.666Z,32.80
2022-11-23T04:50:44.645Z,33.43
2022-11-23T04:53:52.195Z,33.47
2022-11-23T04:56:56.555Z,31.33
2022-11-23T04:59:59.670Z,33.10
2022-11-23T05:03:05.761Z,31.87
2022-11-23T05:06:11.796Z,30.90
2022-11-23T05:09:18.290Z,34.57
2022-11-23T05:12:34.049Z,33.13
2022-11-23T05:15:37.697Z,32.90
2022-11-23T05:18:42.287Z,33.50
2022-11-23T05:21:45.954Z,33.47
2022-11-23T05:24:50.914Z,33.47
2022-11-23T05:27:59.198Z,34.87
2022-11-23T05:31:07.437Z,31.83
2022-11-23T05:34:11.891Z,35.07
2022-11-23T05:37:21.643Z,33.03
2022-11-23T05:40:30.076Z,33.77
2022-11-23T05:43:35.606Z,34.47
2022-11-23T05:46:38.843Z,33.30
2022-11-23T05:49:43.484Z,33.10
2022-11-23T05:52:47.745Z,34.70
2022-11-23T05:55:50.711Z,34.63
2022-11-23T05:58:57.037Z,33.20
2022-11-23T06:02:00.135Z,30.37
2022-11-23T06:05:10.091Z,31.33
2022-11-23T06:08:21.252Z,32.50
2022-11-23T06:11:25.073Z,32.20
2022-11-23T06:14:29.583Z,32.93
2022-11-23T06:17:33.410Z,32.40
2022-11-23T06:20:42.594Z,32.53
2022-11-23T06:23:47.663Z,30.93
2022-11-23T06:26:51.150Z,32.20
2022-11-23T06:29:54.265Z,32.27
2022-11-23T06:33:05.395Z,33.10
2022-11-23T06:36:16.404Z,32.23
2022-11-23T06:39:24.040Z,32.60
2022-11-23T06:42:42.569Z,34.13
2022-11-23T06:45:58.069Z,31.37
2022-11-23T06:49:04.614Z,32.10
2022-11-23T06:52:09.346Z,31.40
2022-11-23T06:55:12.456Z,30.07
2022-11-23T06:58:18.273Z,28.93
2022-11-23T07:01:23.056Z,29.87
2022-11-23T07:04:31.899Z,29.80
2022-11-23T07:07:36.528Z,28.63
2022-11-23T07:10:46.468Z,32.00
2022-11-23T07:13:52.155Z,30.03
2022-11-23T07:16:55.373Z,29.50
2022-11-23T07:19:58.798Z,29.87
2022-11-23T07:23:05.930Z,30.40
2022-11-23T07:26:09.672Z,29.27
2022-11-23T07:29:12.894Z,30.27
2022-11-23T07:32:16.331Z,31.27
2022-11-23T07:35:21.485Z,30.30
2022-11-23T07:38:25.999Z,31.00
2022-11-23T07:41:29.220Z,29.43
2022-11-23T07:44:41.144Z,29.63
2022-11-23T07:47:46.840Z,31.27
2022-11-23T07:50:49.793Z,32.57
2022-11-23T07:53:54.087Z,32.03
2022-11-23T07:56:57.022Z,31.97
2022-11-23T07:59:59.957Z,31.73
2022-11-23T08:06:26.219Z,35.37
2022-11-23T08:09:30.599Z,35.77
2022-11-23T08:12:33.573Z,33.87
2022-11-23T08:15:37.166Z,33.90
2022-11-23T08:18:40.132Z,34.87
2022-11-23T08:21:43.092Z,33.80
2022-11-23T08:24:47.975Z,34.27
2022-11-23T08:27:56.772Z,33.93
2022-11-23T08:31:00.330Z,35.10
2022-11-23T08:34:03.905Z,34.20
2022-11-23T08:37:07.063Z,32.43
2022-11-23T08:40:13.717Z,33.53
2022-11-23T08:43:16.644Z,32.20
2022-11-23T08:46:19.630Z,33.30
2022-11-23T08:49:22.559Z,33.53
2022-11-23T08:52:27.107Z,31.53
2022-11-23T08:55:32.290Z,33.73
2022-11-23T08:58:37.977Z,33.37
2022-11-23T09:01:40.999Z,32.40
2022-11-23T09:04:44.113Z,32.93
2022-11-23T09:07:47.159Z,31.20
2022-11-23T09:10:51.526Z,30.20
2022-11-23T09:13:54.745Z,32.33
2022-11-23T09:17:02.729Z,30.90
2022-11-23T09:20:07.643Z,30.10
2022-11-23T09:23:14.282Z,31.20
2022-11-23T09:26:18.920Z,29.53
2022-11-23T09:29:22.546Z,29.10
2022-11-23T09:32:26.611Z,29.07
2022-11-23T09:35:29.816Z,29.97
2022-11-23T09:38:55.174Z,27.90
2022-11-23T09:42:27.861Z,27.40
2022-11-23T09:45:38.889Z,27.23
2022-11-23T09:48:56.908Z,25.33
2022-11-23T09:52:16.347Z,26.07
2022-11-23T09:55:26.259Z,27.30
2022-11-23T09:58:37.406Z,26.60
2022-11-23T10:01:40.506Z,25.63
2022-11-23T10:04:45.588Z,26.63
2022-11-23T10:08:04.298Z,26.77
2022-11-23T10:11:45.229Z,27.20
2022-11-23T10:15:12.105Z,27.20
2022-11-23T10:18:31.662Z,27.10
2022-11-23T10:21:44.322Z,25.23
2022-11-23T10:24:51.097Z,24.77
2022-11-23T10:27:59.849Z,24.13
2022-11-23T10:31:14.240Z,25.23
2022-11-23T10:34:20.722Z,22.83
2022-11-23T10:37:23.854Z,23.40
2022-11-23T10:40:30.251Z,25.23
2022-11-23T10:43:39.693Z,21.87
2022-11-23T10:46:44.227Z,22.90
2022-11-23T10:49:59.752Z,22.67
2022-11-23T10:53:21.200Z,22.17
2022-11-23T10:56:25.097Z,22.47
2022-11-23T10:59:37.876Z,22.50
2022-11-23T11:02:46.062Z,24.13
2022-11-23T11:09:22.113Z,20.83
2022-11-23T11:12:27.620Z,23.17
2022-11-23T11:15:36.222Z,22.37
2022-11-23T11:18:43.197Z,21.17
2022-11-23T11:21:46.305Z,22.37
2022-11-23T11:24:49.981Z,21.53
2022-11-23T11:27:53.668Z,20.37
2022-11-23T11:31:11.980Z,21.57
2022-11-23T11:34:23.716Z,20.03
2022-11-23T11:37:36.267Z,21.40
2022-11-23T11:40:46.667Z,19.60
2022-11-23T11:43:55.719Z,22.40
2022-11-23T11:47:03.182Z,20.33
2022-11-23T11:50:21.713Z,20.80
2022-11-23T11:53:32.379Z,20.43
2022-11-23T11:56:40.458Z,19.27
2022-11-23T11:59:47.367Z,19.40
2022-11-23T12:03:05.914Z,20.57
2022-11-23T12:06:25.179Z,20.30
2022-11-23T12:09:35.911Z,20.57
2022-11-23T12:12:42.973Z,18.67
2022-11-23T12:15:50.944Z,19.33
2022-11-23T12:19:11.372Z,18.97
2022-11-23T12:22:45.139Z,19.30
2022-11-23T12:25:59.263Z,19.97
2022-11-23T12:29:35.266Z,18.50
2022-11-23T12:32:52.078Z,17.03
2022-11-23T12:36:28.490Z,17.90
2022-11-23T12:39:59.797Z,18.20
2022-11-23T12:43:07.476Z,16.30
2022-11-23T12:46:20.149Z,16.90
2022-11-23T12:49:39.060Z,18.10
2022-11-23T12:53:00.951Z,17.60
2022-11-23T12:56:15.462Z,17.13
2022-11-23T12:59:19.600Z,17.33
2022-11-23T13:03:15.497Z,16.37
2022-11-23T13:07:27.343Z,16.40
2022-11-23T13:10:46.421Z,16.03
2022-11-23T13:14:13.843Z,15.60
2022-11-23T13:17:33.617Z,16.73
2022-11-23T13:21:10.319Z,18.07
2022-11-23T13:24:34.374Z,15.70
2022-11-23T13:28:24.733Z,16.33
2022-11-23T13:31:50.870Z,14.47
2022-11-23T13:35:42.075Z,14.73
2022-11-23T13:38:55.864Z,15.17
2022-11-23T13:42:02.587Z,14.87
2022-11-23T13:45:25.750Z,15.00
2022-11-23T13:52:08.340Z,17.30
2022-11-23T13:55:23.015Z,15.97
2022-11-23T13:58:40.453Z,17.40
2022-11-23T14:02:29.807Z,15.33
2022-11-23T14:06:00.605Z,16.80
2022-11-23T14:09:12.294Z,14.57
2022-11-23T14:12:23.820Z,14.57
2022-11-23T14:15:31.355Z,14.93
2022-11-23T14:18:57.185Z,15.63
2022-11-23T14:22:09.938Z,15.67
2022-11-23T14:25:33.638Z,16.23
2022-11-23T14:28:52.431Z,15.30
2022-11-23T14:32:26.919Z,17.37
2022-11-23T14:35:34.040Z,15.67
2022-11-23T14:39:03.252Z,17.37
2022-11-23T14:42:14.133Z,16.33
2022-11-23T14:45:21.831Z,16.60
2022-11-23T14:48:30.356Z,17.33
2022-11-23T14:51:37.354Z,17.80
2022-11-23T14:54:48.026Z,16.93
2022-11-23T14:57:54.912Z,18.17
2022-11-23T15:01:04.624Z,20.90
2022-11-23T15:04:10.822Z,19.90
2022-11-23T15:07:20.028Z,19.83
2022-11-23T15:10:38.432Z,18.60
2022-11-23T15:13:46.670Z,18.20
2022-11-23T15:16:49.882Z,16.23
2022-11-23T15:19:58.594Z,18.33
2022-11-23T15:23:02.240Z,17.33
2022-11-23T15:26:28.540Z,16.57
2022-11-23T15:29:39.872Z,21.93
2022-11-23T15:32:43.123Z,23.10
2022-11-23T15:35:46.587Z,27.33
2022-11-23T15:38:50.265Z,24.53
2022-11-23T15:41:55.661Z,24.77
2022-11-23T15:44:58.958Z,27.30
2022-11-23T15:48:02.437Z,20.67
2022-11-23T15:51:09.659Z,20.47
2022-11-23T15:54:19.944Z,21.87
2022-11-23T15:57:28.168Z,17.83
2022-11-23T16:00:31.705Z,21.10
2022-11-23T16:03:42.454Z,20.13
2022-11-23T16:06:49.402Z,21.80
2022-11-23T16:10:15.403Z,19.03
2022-11-23T16:13:39.947Z,19.57
2022-11-23T16:16:46.947Z,20.10
2022-11-23T16:19:51.989Z,19.83
2022-11-23T16:22:55.463Z,20.27
2022-11-23T16:26:01.324Z,23.13
2022-11-23T16:29:05.853Z,19.60
2022-11-23T16:32:25.041Z,22.17
2022-11-23T16:35:30.833Z,24.13
2022-11-23T16:38:33.765Z,24.57
2022-11-23T16:41:37.162Z,26.83
2022-11-23T16:44:42.184Z,25.80
2022-11-23T16:47:54.452Z,26.00
2022-11-23T16:50:58.543Z,25.07
2022-11-23T16:54:13.484Z,26.70
2022-11-23T16:57:25.265Z,26.03
2022-11-23T17:00:30.844Z,26.00
2022-11-23T17:03:34.905Z,25.80
2022-11-23T17:06:38.434Z,24.00
2022-11-23T17:09:41.436Z,25.27
2022-11-23T17:12:52.125Z,26.77
2022-11-23T17:15:56.685Z,25.37
2022-11-23T17:18:59.745Z,27.57
2022-11-23T17:25:31.894Z,30.37
2022-11-23T17:28:36.060Z,29.70
2022-11-23T17:31:39.071Z,32.30
2022-11-23T17:34:42.594Z,30.47
2022-11-23T17:37:46.889Z,29.77
2022-11-23T17:40:51.218Z,31.20
2022-11-23T17:43:54.603Z,32.67
2022-11-23T17:47:00.787Z,31.03
2022-11-23T17:50:04.032Z,32.57
2022-11-23T17:53:09.314Z,32.53
2022-11-23T17:56:19.659Z,33.03
2022-11-23T17:59:22.677Z,32.00
2022-11-23T18:02:25.876Z,31.53
2022-11-23T18:05:29.838Z,33.07
2022-11-23T18:08:32.919Z,33.27
2022-11-23T18:11:39.354Z,36.37
2022-11-23T18:14:44.559Z,40.20
2022-11-23T18:17:47.577Z,37.13
2022-11-23T18:20:50.816Z,34.50
2022-11-23T18:23:53.919Z,36.10
2022-11-23T18:26:58.260Z,34.27
2022-11-23T18:30:01.189Z,34.37
2022-11-23T18:33:04.378Z,36.33
2022-11-23T18:36:09.034Z,37.10
2022-11-23T18:39:12.030Z,38.97
2022-11-23T18:42:16.376Z,37.60
2022-11-23T18:45:19.468Z,38.80
2022-11-23T18:48:23.175Z,36.30
2022-11-23T18:51:26.915Z,35.40
2022-11-23T18:54:34.824Z,38.30
2022-11-23T18:57:39.133Z,36.40
2022-11-23T19:00:42.674Z,38.43
2022-11-23T19:03:48.545Z,38.00
2022-11-23T19:06:51.738Z,37.23
2022-11-23T19:09:55.672Z,37.77
2022-11-23T19:13:05.053Z,38.63
2022-11-23T19:16:14.227Z,37.93
2022-11-23T19:19:18.909Z,42.17
2022-11-23T19:22:21.916Z,38.67
2022-11-23T19:25:24.964Z,36.63
2022-11-23T19:28:29.238Z,36.70
2022-11-23T19:31:33.451Z,36.67
2022-11-23T19:34:36.406Z,36.20
2022-11-23T19:37:39.785Z,37.00
2022-11-23T19:40:42.921Z,38.90
2022-11-23T19:43:52.970Z,39.17
2022-11-23T19:46:56.495Z,39.27
2022-11-23T19:50:01.315Z,39.17
2022-11-23T19:53:12.461Z,37.40
2022-11-23T19:56:19.485Z,38.13
2022-11-23T19:59:25.168Z,37.67
2022-11-23T20:02:29.982Z,38.10
2022-11-23T20:05:33.759Z,38.53
2022-11-23T20:08:37.321Z,37.37
2022-11-23T20:11:43.047Z,40.00
2022-11-23T20:14:49.402Z,38.80
2022-11-23T20:17:52.599Z,36.97
2022-11-23T20:20:55.673Z,39.10
2022-11-23T20:24:04.683Z,35.77
2022-11-23T20:27:13.478Z,40.30
2022-11-23T20:30:18.901Z,37.63
2022-11-23T20:33:22.196Z,39.50
2022-11-23T20:36:27.840Z,39.93
2022-11-23T20:39:30.779Z,41.37
2022-11-23T20:42:33.833Z,42.10
2022-11-23T20:45:38.257Z,41.30
2022-11-23T20:48:44.720Z,42.13
2022-11-23T20:51:47.764Z,44.07
2022-11-23T20:54:51.054Z,41.37
2022-11-23T20:57:55.399Z,44.83
2022-11-23T21:01:07.620Z,42.57
2022-11-23T21:04:10.706Z,41.87
2022-11-23T21:07:14.009Z,45.67
2022-11-23T21:10:31.721Z,46.30
2022-11-23T21:13:52.506Z,41.47
2022-11-23T21:16:59.421Z,45.53
2022-11-23T21:20:02.528Z,44.43
2022-11-23T21:23:05.734Z,47.03
2022-11-23T21:26:08.754Z,44.33
2022-11-23T21:29:12.270Z,44.00
2022-11-23T21:32:16.596Z,43.40
2022-11-23T21:35:19.682Z,46.40
2022-11-23T21:38:31.156Z,42.83
2022-11-23T21:41:34.462Z,47.17
2022-11-23T21:44:37.432Z,47.87
2022-11-23T21:47:42.130Z,47.77
2022-11-23T21:50:45.068Z,46.77
2022-11-23T21:53:48.390Z,49.07
2022-11-23T21:56:51.332Z,48.90
2022-11-23T21:59:54.575Z,51.47
2022-11-23T22:02:59.817Z,50.43
2022-11-23T22:06:02.838Z,51.50
2022-11-23T22:09:09.163Z,50.60
2022-11-23T22:12:15.278Z,52.33
2022-11-23T22:15:18.278Z,53.43
2022-11-23T22:18:22.641Z,55.00
2022-11-23T22:21:28.234Z,53.57
2022-11-23T22:24:32.133Z,54.03
2022-11-23T22:27:37.036Z,58.83
2022-11-23T22:30:40.120Z,57.27
2022-11-23T22:33:44.863Z,54.97
2022-11-23T22:36:53.160Z,57.13
2022-11-23T22:39:58.833Z,60.40
2022-11-23T22:43:01.792Z,55.30
2022-11-23T22:46:07.063Z,59.43
2022-11-23T22:49:11.425Z,56.93
2022-11-23T22:52:14.544Z,63.37
2022-11-23T22:55:17.679Z,58.63
2022-11-23T22:58:21.626Z,57.33
2022-11-23T23:01:27.382Z,59.27
2022-11-23T23:04:31.941Z,58.67
2022-11-23T23:07:35.263Z,56.70
2022-11-23T23:10:39.721Z,62.30
2022-11-23T23:13:47.616Z,65.23
2022-11-23T23:16:50.708Z,60.47
2022-11-23T23:19:59.361Z,59.77
2022-11-23T23:23:02.577Z,58.37
2022-11-23T23:26:05.821Z,59.30
2022-11-23T23:29:10.354Z,62.13
2022-11-23T23:32:13.436Z,63.80
2022-11-23T23:35:18.085Z,60.93
2022-11-23T23:38:21.072Z,59.60
2022-11-23T23:41:25.993Z,61.97
2022-11-23T23:44:29.021Z,65.30
2022-11-23T23:47:34.827Z,61.23
2022-11-23T23:50:39.391Z,64.00
2022-11-23T23:53:43.672Z,62.50
2022-11-23T23:56:49.261Z,64.23
2022-11-23T23:59:52.229Z,65.60
